createdAt,value
2023-03-14T00:01:30.238Z,-2.92
2023-03-14T00:04:00.466Z,-2.85
2023-03-14T00:06:30.296Z,-2.89
2023-03-14T00:09:01.012Z,-3.00
2023-03-14T00:11:30.917Z,-2.97
2023-03-14T00:14:00.776Z,-3.05
2023-03-14T00:16:31.319Z,-2.96
2023-03-14T00:19:02.101Z,-2.98
2023-03-14T00:21:31.513Z,-3.12
2023-03-14T00:24:02.418Z,-3.16
2023-03-14T00:26:31.708Z,-3.17
2023-03-14T00:29:01.635Z,-3.22
2023-03-14T00:31:31.098Z,-3.25
2023-03-14T00:34:00.765Z,-3.21
2023-03-14T00:36:30.108Z,-3.26
2023-03-14T00:39:00.873Z,-3.29
2023-03-14T00:41:30.325Z,-3.18
2023-03-14T00:43:59.782Z,-3.19
2023-03-14T00:46:29.278Z,-3.22
2023-03-14T00:50:24.647Z,-3.16
2023-03-14T00:52:54.126Z,-3.16
2023-03-14T00:55:23.384Z,-3.21
2023-03-14T00:57:52.722Z,-3.31
2023-03-14T01:00:22.416Z,-3.28
2023-03-14T01:02:51.721Z,-3.26
2023-03-14T01:05:21.067Z,-3.31
2023-03-14T01:07:51.811Z,-3.35
2023-03-14T01:10:21.569Z,-3.40
2023-03-14T01:12:51.069Z,-3.42
2023-03-14T01:15:21.252Z,-3.43
2023-03-14T01:17:50.573Z,-3.38
2023-03-14T01:20:20.791Z,-3.40
2023-03-14T01:22:51.468Z,-3.42
2023-03-14T01:25:21.351Z,-3.34
2023-03-14T01:27:50.716Z,-3.30
2023-03-14T01:30:20.136Z,-3.42
2023-03-14T01:32:49.471Z,-3.52
2023-03-14T01:35:18.943Z,-3.50
2023-03-14T01:37:48.212Z,-3.55
2023-03-14T01:40:19.070Z,-3.62
2023-03-14T01:42:49.723Z,-3.57
2023-03-14T01:46:21.945Z,-3.50
2023-03-14T01:48:59.802Z,-3.47
2023-03-14T01:51:36.024Z,-3.44
2023-03-14T01:54:14.585Z,-3.49
2023-03-14T01:56:48.999Z,-3.52
2023-03-14T01:59:18.358Z,-3.59
2023-03-14T02:01:50.882Z,-3.60
2023-03-14T02:04:23.023Z,-3.62
2023-03-14T02:07:03.274Z,-3.74
2023-03-14T02:09:33.977Z,-3.80
2023-03-14T02:12:05.282Z,-3.74
2023-03-14T02:14:37.239Z,-3.75
2023-03-14T02:17:09.508Z,-3.80
2023-03-14T02:20:01.432Z,-3.76
2023-03-14T02:22:30.971Z,-3.84
2023-03-14T02:25:11.486Z,-3.83
2023-03-14T02:27:42.936Z,-3.80
2023-03-14T02:30:16.268Z,-3.80
2023-03-14T02:32:50.625Z,-3.76
2023-03-14T02:35:25.266Z,-3.71
2023-03-14T02:37:59.357Z,-3.82
2023-03-14T02:40:28.772Z,-3.88
2023-03-14T02:42:59.560Z,-3.85
2023-03-14T02:45:45.644Z,-3.81
2023-03-14T02:48:20.670Z,-3.71
2023-03-14T02:50:53.353Z,-3.73
2023-03-14T02:53:27.709Z,-3.79
2023-03-14T02:55:57.120Z,-3.83
2023-03-14T02:58:28.444Z,-3.90
2023-03-14T03:00:57.817Z,-3.98
2023-03-14T03:03:28.696Z,-3.97
2023-03-14T03:05:59.849Z,-3.98
2023-03-14T03:08:30.824Z,-4.01
2023-03-14T03:11:01.367Z,-4.00
2023-03-14T03:13:32.125Z,-4.01
2023-03-14T03:16:01.482Z,-4.07
2023-03-14T03:18:30.922Z,-4.16
2023-03-14T03:21:03.913Z,-4.20
2023-03-14T03:23:33.870Z,-4.16
2023-03-14T03:26:03.528Z,-4.13
2023-03-14T03:28:34.230Z,-4.10
2023-03-14T03:31:10.717Z,-4.14
2023-03-14T03:33:40.471Z,-4.19
2023-03-14T03:36:12.071Z,-4.23
2023-03-14T03:38:41.438Z,-4.20
2023-03-14T03:41:11.359Z,-4.18
2023-03-14T03:43:42.672Z,-4.21
2023-03-14T03:46:12.184Z,-4.23
2023-03-14T03:51:24.638Z,-4.23
2023-03-14T03:53:54.184Z,-4.21
2023-03-14T03:56:24.582Z,-4.26
2023-03-14T03:58:54.152Z,-4.32
2023-03-14T04:01:23.394Z,-4.35
2023-03-14T04:03:53.263Z,-4.38
2023-03-14T04:06:24.449Z,-4.41
2023-03-14T04:08:53.976Z,-4.41
2023-03-14T04:11:23.366Z,-4.37
2023-03-14T04:13:52.808Z,-4.37
2023-03-14T04:16:25.460Z,-4.34
2023-03-14T04:18:55.471Z,-4.26
2023-03-14T04:21:26.475Z,-4.30
2023-03-14T04:23:55.765Z,-4.31
2023-03-14T04:26:25.279Z,-4.31
2023-03-14T04:28:54.662Z,-4.30
2023-03-14T04:31:25.248Z,-4.32
2023-03-14T04:33:54.933Z,-4.32
2023-03-14T04:36:25.817Z,-4.31
2023-03-14T04:38:55.159Z,-4.33
2023-03-14T04:41:24.491Z,-4.35
2023-03-14T04:43:54.011Z,-4.34
2023-03-14T04:46:23.610Z,-4.30
2023-03-14T04:48:53.031Z,-4.28
2023-03-14T04:51:24.586Z,-4.23
2023-03-14T04:53:55.553Z,-4.20
2023-03-14T04:56:25.230Z,-4.20
2023-03-14T04:58:54.702Z,-4.21
2023-03-14T05:01:24.684Z,-4.23
2023-03-14T05:03:54.152Z,-4.22
2023-03-14T05:06:23.569Z,-4.15
2023-03-14T05:08:54.446Z,-4.17
2023-03-14T05:11:23.791Z,-4.13
2023-03-14T05:13:53.198Z,-4.00
2023-03-14T05:16:22.578Z,-3.91
2023-03-14T05:18:52.560Z,-3.86
2023-03-14T05:21:21.890Z,-3.78
2023-03-14T05:23:51.386Z,-3.67
2023-03-14T05:26:22.202Z,-3.53
2023-03-14T05:28:51.598Z,-3.20
2023-03-14T05:31:21.000Z,-2.86
2023-03-14T05:33:50.410Z,-2.44
2023-03-14T05:36:19.793Z,-2.11
2023-03-14T05:38:49.098Z,-1.82
2023-03-14T05:41:18.505Z,-1.52
2023-03-14T05:43:49.270Z,-1.25
2023-03-14T05:46:18.711Z,-0.96
2023-03-14T05:48:48.028Z,-0.64
2023-03-14T05:51:17.369Z,-0.39
2023-03-14T05:53:46.710Z,-0.10
2023-03-14T05:56:16.169Z,0.18
2023-03-14T05:58:45.851Z,0.41
2023-03-14T06:01:16.556Z,0.57
2023-03-14T06:03:45.917Z,0.71
2023-03-14T06:06:15.287Z,0.77
2023-03-14T06:08:44.589Z,0.94
2023-03-14T06:11:14.314Z,1.09
2023-03-14T06:13:43.631Z,1.22
2023-03-14T06:16:13.117Z,1.34
2023-03-14T06:18:44.053Z,1.52
2023-03-14T06:21:13.330Z,1.76
2023-03-14T06:23:42.796Z,1.95
2023-03-14T06:26:12.895Z,2.09
2023-03-14T06:28:42.455Z,2.22
2023-03-14T06:31:11.846Z,2.39
2023-03-14T06:33:42.883Z,2.55
2023-03-14T06:36:12.958Z,2.73
2023-03-14T06:38:42.245Z,2.84
2023-03-14T06:41:11.924Z,2.94
2023-03-14T06:43:41.311Z,3.13
2023-03-14T06:46:10.713Z,3.33
2023-03-14T06:51:26.839Z,3.61
2023-03-14T06:53:56.153Z,3.76
2023-03-14T06:56:25.415Z,4.01
2023-03-14T06:58:54.921Z,4.21
2023-03-14T07:01:28.186Z,4.10
2023-03-14T07:03:57.997Z,4.14
2023-03-14T07:06:30.425Z,4.14
2023-03-14T07:09:00.139Z,4.34
2023-03-14T07:11:30.072Z,4.46
2023-03-14T07:13:59.480Z,4.68
2023-03-14T07:16:32.492Z,4.95
2023-03-14T07:19:02.195Z,5.15
2023-03-14T07:21:35.851Z,5.24
2023-03-14T07:24:05.305Z,5.28
2023-03-14T07:26:34.693Z,5.45
2023-03-14T07:29:05.136Z,5.67
2023-03-14T07:31:35.209Z,5.64
2023-03-14T07:34:04.517Z,5.69
2023-03-14T07:36:35.271Z,5.79
2023-03-14T07:39:05.361Z,5.88
2023-03-14T07:41:35.175Z,6.03
2023-03-14T07:44:04.464Z,6.05
2023-03-14T07:46:33.821Z,6.18
2023-03-14T07:49:03.408Z,6.15
2023-03-14T07:51:34.270Z,6.32
2023-03-14T07:54:03.772Z,6.54
2023-03-14T07:56:33.244Z,6.57
2023-03-14T07:59:02.835Z,6.63
2023-03-14T08:01:32.176Z,6.84
2023-03-14T08:04:01.857Z,6.89
2023-03-14T08:06:31.329Z,6.95
2023-03-14T08:09:02.200Z,7.15
2023-03-14T08:11:31.445Z,7.52
2023-03-14T08:14:01.014Z,7.70
2023-03-14T08:16:30.494Z,7.88
2023-03-14T08:18:59.939Z,7.83
2023-03-14T08:21:29.465Z,7.83
2023-03-14T08:23:58.905Z,7.97
2023-03-14T08:26:29.754Z,8.28
2023-03-14T08:28:59.055Z,8.65
2023-03-14T08:31:28.502Z,8.91
2023-03-14T08:33:57.954Z,9.09
2023-03-14T08:36:27.373Z,9.19
2023-03-14T08:38:56.801Z,9.18
2023-03-14T08:41:28.372Z,9.30
2023-03-14T08:43:57.781Z,9.34
2023-03-14T08:46:27.156Z,9.12
2023-03-14T08:48:56.631Z,9.21
2023-03-14T08:51:26.060Z,9.62
2023-03-14T08:53:55.632Z,9.87
2023-03-14T08:56:26.219Z,10.12
2023-03-14T08:58:57.119Z,10.11
2023-03-14T09:01:27.500Z,10.15
2023-03-14T09:03:57.046Z,10.30
2023-03-14T09:06:26.584Z,10.41
2023-03-14T09:08:56.074Z,10.25
2023-03-14T09:11:25.489Z,10.28
2023-03-14T09:13:56.218Z,10.61
2023-03-14T09:16:25.797Z,10.66
2023-03-14T09:18:55.767Z,10.15
2023-03-14T09:21:25.302Z,10.14
2023-03-14T09:23:55.018Z,10.37
2023-03-14T09:26:24.384Z,10.59
2023-03-14T09:28:53.717Z,10.80
2023-03-14T09:31:24.749Z,10.80
2023-03-14T09:33:54.180Z,10.94
2023-03-14T09:36:23.651Z,10.95
2023-03-14T09:38:52.960Z,10.94
2023-03-14T09:41:28.034Z,11.00
2023-03-14T09:44:06.874Z,10.95
2023-03-14T09:46:40.552Z,10.82
2023-03-14T09:51:25.340Z,10.60
2023-03-14T09:53:54.744Z,10.83
2023-03-14T09:56:28.051Z,11.04
2023-03-14T09:59:00.614Z,11.11
2023-03-14T10:01:33.357Z,11.30
2023-03-14T10:04:09.553Z,11.28
2023-03-14T10:06:40.603Z,11.10
2023-03-14T10:09:15.613Z,11.18
2023-03-14T10:11:44.975Z,11.18
2023-03-14T10:14:14.965Z,11.22
2023-03-14T10:16:47.294Z,11.24
2023-03-14T10:19:19.103Z,11.29
2023-03-14T10:21:55.963Z,11.14
2023-03-14T10:24:31.449Z,11.07
2023-03-14T10:27:05.421Z,11.19
2023-03-14T10:29:36.743Z,11.41
2023-03-14T10:32:08.987Z,11.29
2023-03-14T10:34:40.621Z,11.15
2023-03-14T10:37:24.437Z,11.21
2023-03-14T10:39:56.369Z,11.27
2023-03-14T10:42:31.165Z,11.45
2023-03-14T10:45:03.813Z,11.43
2023-03-14T10:47:35.293Z,11.34
2023-03-14T10:50:29.278Z,11.43
2023-03-14T10:53:06.580Z,11.47
2023-03-14T10:55:46.226Z,11.57
2023-03-14T10:58:35.331Z,11.36
2023-03-14T11:01:23.922Z,11.36
2023-03-14T11:04:00.117Z,11.35
2023-03-14T11:06:39.069Z,11.34
2023-03-14T11:09:23.761Z,11.45
2023-03-14T11:11:53.250Z,11.64
2023-03-14T11:14:33.115Z,11.78
2023-03-14T11:17:07.660Z,11.77
2023-03-14T11:20:07.371Z,11.80
2023-03-14T11:22:43.937Z,11.94
2023-03-14T11:25:27.340Z,12.04
2023-03-14T11:28:08.115Z,12.15
2023-03-14T11:30:46.089Z,12.26
2023-03-14T11:33:20.052Z,12.26
2023-03-14T11:35:55.339Z,12.22
2023-03-14T11:38:35.647Z,12.19
2023-03-14T11:41:12.322Z,12.02
2023-03-14T11:43:44.226Z,12.11
2023-03-14T11:46:20.320Z,12.16
2023-03-14T11:49:06.456Z,12.35
2023-03-14T11:51:40.183Z,12.47
2023-03-14T11:54:20.935Z,12.64
2023-03-14T11:56:56.927Z,12.72
2023-03-14T11:59:32.087Z,12.76
2023-03-14T12:02:06.521Z,12.64
2023-03-14T12:04:55.793Z,12.63
2023-03-14T12:07:32.643Z,12.68
2023-03-14T12:10:02.270Z,12.69
2023-03-14T12:12:34.288Z,12.78
2023-03-14T12:15:06.472Z,12.93
2023-03-14T12:17:41.653Z,13.04
2023-03-14T12:20:22.343Z,13.09
2023-03-14T12:22:54.545Z,13.10
2023-03-14T12:25:27.488Z,13.19
2023-03-14T12:28:23.288Z,13.16
2023-03-14T12:30:52.646Z,13.13
2023-03-14T12:33:34.908Z,13.23
2023-03-14T12:36:14.112Z,13.38
2023-03-14T12:39:11.504Z,13.65
2023-03-14T12:41:47.292Z,13.57
2023-03-14T12:44:48.526Z,13.40
2023-03-14T12:51:37.172Z,13.43
2023-03-14T12:54:31.609Z,13.17
2023-03-14T12:57:12.826Z,13.12
2023-03-14T12:59:49.491Z,13.20
2023-03-14T13:02:28.825Z,13.24
2023-03-14T13:05:07.188Z,13.00
2023-03-14T13:08:12.389Z,12.69
2023-03-14T13:10:51.227Z,12.70
2023-03-14T13:13:26.964Z,12.77
2023-03-14T13:16:01.489Z,12.64
2023-03-14T13:18:37.378Z,12.55
2023-03-14T13:21:13.458Z,12.47
2023-03-14T13:23:45.324Z,12.40
2023-03-14T13:26:17.955Z,12.40
2023-03-14T13:28:47.139Z,12.36
2023-03-14T13:31:25.759Z,12.39
2023-03-14T13:34:07.320Z,12.34
2023-03-14T13:36:39.306Z,12.22
2023-03-14T13:39:17.744Z,12.15
2023-03-14T13:41:49.736Z,12.04
2023-03-14T13:44:25.260Z,11.91
2023-03-14T13:46:54.747Z,11.68
2023-03-14T13:49:27.382Z,11.65
2023-03-14T13:51:56.466Z,11.62
2023-03-14T13:54:30.044Z,11.51
2023-03-14T13:57:04.586Z,11.41
2023-03-14T13:59:35.924Z,11.27
2023-03-14T14:02:18.424Z,11.11
2023-03-14T14:04:48.061Z,11.04
2023-03-14T14:07:20.538Z,10.93
2023-03-14T14:09:54.589Z,10.84
2023-03-14T14:12:30.391Z,10.78
2023-03-14T14:15:03.500Z,10.67
2023-03-14T14:17:37.885Z,10.52
2023-03-14T14:20:13.076Z,10.38
2023-03-14T14:22:43.046Z,10.29
2023-03-14T14:25:18.053Z,10.19
2023-03-14T14:27:52.406Z,10.11
2023-03-14T14:30:36.386Z,9.96
2023-03-14T14:33:22.128Z,9.88
2023-03-14T14:35:57.994Z,9.87
2023-03-14T14:38:28.341Z,9.80
2023-03-14T14:41:04.839Z,9.74
2023-03-14T14:43:38.495Z,9.65
2023-03-14T14:46:10.702Z,9.60
2023-03-14T14:48:41.317Z,9.55
2023-03-14T14:51:11.039Z,9.46
2023-03-14T14:53:43.018Z,9.43
2023-03-14T14:56:23.698Z,9.38
2023-03-14T14:58:53.195Z,9.35
2023-03-14T15:01:27.883Z,9.27
2023-03-14T15:03:57.698Z,9.17
2023-03-14T15:06:32.190Z,9.05
2023-03-14T15:09:01.557Z,8.98
2023-03-14T15:11:32.240Z,8.93
2023-03-14T15:14:01.715Z,8.91
2023-03-14T15:16:33.872Z,8.88
2023-03-14T15:19:23.051Z,8.82
2023-03-14T15:21:53.948Z,8.70
2023-03-14T15:24:23.599Z,8.61
2023-03-14T15:26:54.894Z,8.57
2023-03-14T15:29:24.380Z,8.49
2023-03-14T15:31:53.739Z,8.41
2023-03-14T15:34:23.812Z,8.39
2023-03-14T15:36:53.095Z,8.29
2023-03-14T15:39:22.413Z,8.12
2023-03-14T15:41:53.175Z,8.04
2023-03-14T15:44:23.254Z,7.95
2023-03-14T15:46:52.582Z,7.80
2023-03-14T15:51:24.458Z,7.58
2023-03-14T15:53:53.971Z,7.46
2023-03-14T15:56:26.151Z,7.39
2023-03-14T15:58:57.081Z,7.33
2023-03-14T16:01:26.515Z,7.21
2023-03-14T16:03:56.902Z,7.16
2023-03-14T16:06:27.720Z,7.01
2023-03-14T16:08:57.734Z,6.81
2023-03-14T16:11:27.129Z,6.68
2023-03-14T16:13:56.507Z,6.58
2023-03-14T16:16:25.988Z,6.54
2023-03-14T16:18:55.349Z,6.57
2023-03-14T16:21:24.770Z,6.50
2023-03-14T16:23:55.695Z,6.44
2023-03-14T16:26:25.240Z,6.31
2023-03-14T16:28:55.195Z,6.16
2023-03-14T16:31:26.783Z,5.99
2023-03-14T16:33:56.258Z,5.77
2023-03-14T16:36:25.811Z,5.68
2023-03-14T16:38:56.908Z,5.62
2023-03-14T16:41:29.938Z,5.60
2023-03-14T16:43:59.498Z,5.62
2023-03-14T16:49:19.807Z,5.63
2023-03-14T16:51:49.308Z,5.57
2023-03-14T16:54:20.109Z,5.49
2023-03-14T16:56:49.792Z,5.40
2023-03-14T16:59:19.114Z,5.25
2023-03-14T17:01:50.360Z,4.95
2023-03-14T17:04:20.078Z,4.72
2023-03-14T17:06:49.305Z,4.56
2023-03-14T17:09:20.437Z,4.42
2023-03-14T17:11:49.720Z,4.24
2023-03-14T17:14:19.030Z,4.09
2023-03-14T17:16:48.374Z,3.95
2023-03-14T17:19:17.634Z,3.89
2023-03-14T17:21:47.015Z,3.86
2023-03-14T17:24:16.410Z,3.81
2023-03-14T17:26:47.109Z,3.64
2023-03-14T17:29:16.577Z,3.52
2023-03-14T17:31:45.945Z,3.37
2023-03-14T17:34:15.236Z,3.33
2023-03-14T17:36:44.595Z,3.29
2023-03-14T17:39:13.868Z,3.25
2023-03-14T17:41:43.147Z,3.17
2023-03-14T17:44:13.969Z,3.15
2023-03-14T17:46:43.221Z,3.01
2023-03-14T17:49:12.576Z,2.85
2023-03-14T17:51:42.237Z,2.78
2023-03-14T17:54:11.665Z,2.82
2023-03-14T17:56:43.939Z,2.73
2023-03-14T17:59:15.272Z,2.52
2023-03-14T18:01:44.983Z,2.44
2023-03-14T18:04:15.016Z,2.44
2023-03-14T18:06:44.983Z,2.39
2023-03-14T18:09:14.406Z,2.33
2023-03-14T18:11:43.729Z,2.10
2023-03-14T18:14:17.769Z,1.98
2023-03-14T18:16:49.864Z,2.04
2023-03-14T18:19:19.690Z,2.06
2023-03-14T18:21:49.125Z,2.05
2023-03-14T18:24:18.474Z,2.00
2023-03-14T18:26:47.776Z,1.92
2023-03-14T18:29:18.733Z,1.82
2023-03-14T18:31:48.265Z,1.71
2023-03-14T18:34:18.232Z,1.64
2023-03-14T18:36:47.598Z,1.58
2023-03-14T18:39:16.895Z,1.52
2023-03-14T18:41:46.313Z,1.46
2023-03-14T18:44:17.132Z,1.36
2023-03-14T18:46:47.565Z,1.27
2023-03-14T18:51:27.179Z,1.29
2023-03-14T18:54:08.213Z,1.22
2023-03-14T18:56:38.926Z,1.08
2023-03-14T18:59:09.092Z,1.04
2023-03-14T19:01:38.982Z,1.03
2023-03-14T19:04:10.937Z,1.00
2023-03-14T19:06:42.857Z,0.99
2023-03-14T19:09:15.940Z,0.98
2023-03-14T19:11:45.890Z,0.83
2023-03-14T19:14:17.905Z,0.75
2023-03-14T19:16:47.291Z,0.72
2023-03-14T19:19:16.675Z,0.71
2023-03-14T19:21:47.492Z,0.75
2023-03-14T19:24:22.991Z,0.69
2023-03-14T19:26:54.261Z,0.70
2023-03-14T19:29:24.191Z,0.68
2023-03-14T19:31:54.485Z,0.70
2023-03-14T19:34:24.000Z,0.67
2023-03-14T19:36:54.779Z,0.71
2023-03-14T19:39:24.175Z,0.75
2023-03-14T19:41:57.880Z,0.74
2023-03-14T19:44:28.285Z,0.65
2023-03-14T19:46:57.752Z,0.57
2023-03-14T19:49:28.025Z,0.44
2023-03-14T19:51:58.914Z,0.32
2023-03-14T19:54:28.483Z,0.27
2023-03-14T19:56:57.888Z,0.25
2023-03-14T19:59:27.244Z,0.11
2023-03-14T20:01:58.558Z,0.06
2023-03-14T20:04:27.939Z,0.10
2023-03-14T20:06:58.725Z,0.16
2023-03-14T20:09:28.373Z,0.15
2023-03-14T20:11:57.775Z,0.16
2023-03-14T20:14:27.296Z,0.22
2023-03-14T20:16:56.732Z,0.23
2023-03-14T20:19:26.201Z,0.13
2023-03-14T20:21:55.537Z,0.14
2023-03-14T20:24:26.536Z,0.24
2023-03-14T20:26:55.872Z,0.34
2023-03-14T20:29:25.759Z,0.36
2023-03-14T20:31:55.054Z,0.34
2023-03-14T20:34:24.445Z,0.19
2023-03-14T20:36:54.164Z,0.21
2023-03-14T20:39:25.215Z,0.21
2023-03-14T20:41:54.881Z,0.29
2023-03-14T20:44:25.013Z,0.36
2023-03-14T20:46:55.672Z,0.34
2023-03-14T20:49:25.596Z,0.30
2023-03-14T20:51:55.220Z,0.27
2023-03-14T20:54:26.015Z,0.25
2023-03-14T20:56:55.501Z,0.19
2023-03-14T20:59:25.009Z,0.17
2023-03-14T21:01:55.771Z,0.06
2023-03-14T21:04:26.590Z,0.04
2023-03-14T21:06:56.707Z,0.01
2023-03-14T21:09:29.061Z,0.00
2023-03-14T21:11:58.355Z,-0.13
2023-03-14T21:14:27.869Z,-0.11
2023-03-14T21:16:59.181Z,-0.12
2023-03-14T21:19:31.701Z,-0.14
2023-03-14T21:22:02.661Z,-0.14
2023-03-14T21:24:35.328Z,-0.15
2023-03-14T21:27:04.694Z,-0.16
2023-03-14T21:29:37.410Z,-0.24
2023-03-14T21:32:06.846Z,-0.32
2023-03-14T21:34:36.503Z,-0.29
2023-03-14T21:37:06.341Z,-0.28
2023-03-14T21:39:37.178Z,-0.34
2023-03-14T21:42:06.679Z,-0.33
2023-03-14T21:44:37.475Z,-0.31
2023-03-14T21:47:07.957Z,-0.29
2023-03-14T21:51:31.405Z,-0.30
2023-03-14T21:54:00.765Z,-0.33
2023-03-14T21:56:30.034Z,-0.36
2023-03-14T21:59:00.897Z,-0.40
2023-03-14T22:01:30.379Z,-0.45
2023-03-14T22:03:59.764Z,-0.47
2023-03-14T22:06:31.381Z,-0.54
2023-03-14T22:09:00.753Z,-0.65
2023-03-14T22:11:30.295Z,-0.63
2023-03-14T22:13:59.696Z,-0.59
2023-03-14T22:16:29.873Z,-0.57
2023-03-14T22:18:59.146Z,-0.58
2023-03-14T22:21:30.357Z,-0.64
2023-03-14T22:23:59.670Z,-0.67
2023-03-14T22:26:29.123Z,-0.73
2023-03-14T22:28:58.554Z,-0.74
2023-03-14T22:31:28.267Z,-0.69
2023-03-14T22:33:57.605Z,-0.67
2023-03-14T22:36:27.293Z,-0.66
2023-03-14T22:38:58.642Z,-0.64
2023-03-14T22:41:28.216Z,-0.65
2023-03-14T22:43:57.630Z,-0.69
2023-03-14T22:46:26.881Z,-0.76
2023-03-14T22:48:56.264Z,-0.80
2023-03-14T22:51:25.518Z,-0.81
2023-03-14T22:53:56.201Z,-0.78
2023-03-14T22:56:25.750Z,-0.74
2023-03-14T22:58:54.979Z,-0.76
2023-03-14T23:01:25.048Z,-0.83
2023-03-14T23:03:54.389Z,-0.84
2023-03-14T23:06:24.266Z,-0.83
2023-03-14T23:08:53.784Z,-0.81
2023-03-14T23:11:26.562Z,-0.82
2023-03-14T23:13:56.049Z,-0.87
2023-03-14T23:16:34.075Z,-0.96
2023-03-14T23:19:09.960Z,-0.94
2023-03-14T23:21:39.576Z,-0.90
2023-03-14T23:24:10.222Z,-0.91
2023-03-14T23:26:40.984Z,-0.96
2023-03-14T23:29:14.110Z,-0.99
2023-03-14T23:31:43.836Z,-1.06
2023-03-14T23:34:13.258Z,-1.06
2023-03-14T23:36:46.114Z,-1.07
2023-03-14T23:39:15.115Z,-1.14
2023-03-14T23:41:46.079Z,-1.15
2023-03-14T23:44:15.482Z,-1.16
2023-03-14T23:46:44.842Z,-1.08
2023-03-14T23:49:14.357Z,-1.13
2023-03-14T23:51:43.586Z,-1.21
2023-03-14T23:54:12.979Z,-1.12
2023-03-14T23:56:42.378Z,-1.04
2023-03-14T23:59:13.451Z,-0.99
